Time;durP1;ratioP1;P1;durP2;ratioP2;P2;SDS_P1;SDS_P2;PMS_P1;PMS_P2;Temp;Humidity;BMP_temperature;BMP_pressure;BME280_temperature;BME280_humidity;BME280_pressure;Samples;Min_cycle;Max_cycle;Signal;HPM_P1;HPM_P2
2021/12/12 00:00:59;;;;;;;40.78;24.58;;;2.60;92.00;;;;;;5031545;28;20328;-44
2021/12/12 00:03:40;;;;;;;51.83;25.00;;;2.60;92.00;;;;;;5031467;28;20377;-44
2021/12/12 00:06:24;;;;;;;51.90;23.88;;;2.70;92.10;;;;;;5032305;28;20021;-45
2021/12/12 00:08:56;;;;;;;42.55;23.45;;;2.70;92.10;;;;;;5032055;28;20361;-46
2021/12/12 00:11:28;;;;;;;46.17;24.52;;;2.70;92.10;;;;;;5031987;28;20018;-46
2021/12/12 00:14:11;;;;;;;41.03;22.92;;;2.70;92.10;;;;;;5045556;28;20044;-47
2021/12/12 00:16:40;;;;;;;50.38;26.95;;;2.70;92.10;;;;;;5031439;28;20419;-47
2021/12/12 00:19:09;;;;;;;45.42;27.00;;;2.80;92.20;;;;;;5031641;28;20025;-43
2021/12/12 00:21:40;;;;;;;55.67;27.93;;;2.80;92.20;;;;;;5031482;28;20486;-44
2021/12/12 00:24:10;;;;;;;49.25;25.02;;;2.80;92.20;;;;;;5030789;28;20289;-46
2021/12/12 00:26:38;;;;;;;47.17;26.00;;;2.90;92.20;;;;;;5031197;28;20029;-45
2021/12/12 00:29:06;;;;;;;51.88;28.17;;;2.90;92.20;;;;;;5029952;28;20039;-45
2021/12/12 00:31:33;;;;;;;54.25;27.63;;;2.90;92.30;;;;;;5046580;28;20046;-47
2021/12/12 00:34:01;;;;;;;55.38;28.27;;;2.90;92.30;;;;;;5031006;28;20087;-49
2021/12/12 00:36:29;;;;;;;51.38;28.15;;;2.90;92.30;;;;;;5031904;28;20095;-46
2021/12/12 00:39:06;;;;;;;54.35;29.42;;;3.00;92.40;;;;;;5030196;28;20025;-47
2021/12/12 00:41:41;;;;;;;60.10;28.20;;;3.00;92.30;;;;;;5031425;28;20032;-47
2021/12/12 00:44:11;;;;;;;55.33;27.30;;;3.10;92.30;;;;;;5031090;28;20097;-45
2021/12/12 00:46:40;;;;;;;52.42;27.23;;;3.10;92.30;;;;;;5031237;28;20025;-51
2021/12/12 00:49:09;;;;;;;51.88;28.90;;;3.10;92.30;;;;;;5030965;28;20057;-48
2021/12/12 00:51:37;;;;;;;54.60;29.05;;;3.20;92.40;;;;;;5031233;28;20029;-44
2021/12/12 00:54:09;;;;;;;61.63;30.75;;;3.20;92.40;;;;;;5030511;28;20052;-46
2021/12/12 00:56:40;;;;;;;50.70;28.63;;;3.20;92.40;;;;;;5030227;28;20033;-44
2021/12/12 00:59:09;;;;;;;57.58;30.90;;;3.10;92.40;;;;;;5029687;28;20034;-45
2021/12/12 01:01:44;;;;;;;61.83;32.85;;;3.20;92.50;;;;;;5046602;28;20018;-45
2021/12/12 01:04:40;;;;;;;66.20;31.70;;;3.20;92.50;;;;;;5030794;28;20431;-46
2021/12/12 01:07:13;;;;;;;57.83;30.48;;;3.20;92.50;;;;;;5028846;28;20082;-48
2021/12/12 01:09:51;;;;;;;55.90;30.98;;;3.20;92.50;;;;;;5011205;28;20030;-44
2021/12/12 01:12:25;;;;;;;59.95;30.27;;;3.20;92.60;;;;;;5012480;28;20482;-46
2021/12/12 01:15:02;;;;;;;61.33;30.15;;;3.30;92.60;;;;;;5030845;28;20440;-46
2021/12/12 01:17:42;;;;;;;65.22;33.13;;;3.30;92.60;;;;;;5029677;28;20072;-46
2021/12/12 01:20:43;;;;;;;62.85;32.65;;;3.40;92.60;;;;;;5031046;28;20030;-43
2021/12/12 01:23:18;;;;;;;63.15;31.98;;;3.40;92.60;;;;;;5030412;28;20022;-44
2021/12/12 01:25:48;;;;;;;57.10;31.00;;;3.40;92.50;;;;;;5030440;28;20017;-46
2021/12/12 01:28:21;;;;;;;65.05;32.88;;;3.40;92.50;;;;;;5030687;28;20021;-44
2021/12/12 01:30:48;;;;;;;63.15;33.03;;;3.50;92.50;;;;;;5045224;28;20048;-48
2021/12/12 01:33:31;;;;;;;67.15;35.17;;;3.50;92.50;;;;;;5066649;28;20034;-44
2021/12/12 01:36:00;;;;;;;69.75;33.72;;;3.50;92.40;;;;;;5070237;28;20035;-44
2021/12/12 01:41:13;;;;;;;65.65;33.35;;;3.60;92.30;;;;;;5070587;28;20067;-45
2021/12/12 01:43:46;;;;;;;59.65;32.50;;;3.50;92.30;;;;;;5069911;28;20039;-44
2021/12/12 01:46:25;;;;;;;64.55;34.60;;;3.50;92.20;;;;;;5070006;28;20031;-45
2021/12/12 01:49:00;;;;;;;69.38;35.30;;;3.50;92.30;;;;;;5070064;28;20028;-46
2021/12/12 01:51:27;;;;;;;69.63;34.67;;;3.50;92.30;;;;;;5069865;28;20027;-45
2021/12/12 01:53:58;;;;;;;71.88;33.15;;;3.60;92.30;;;;;;5057897;28;20029;-44
2021/12/12 01:56:42;;;;;;;70.32;36.50;;;3.50;92.20;;;;;;5058560;28;20037;-44
2021/12/12 01:59:11;;;;;;;68.22;36.22;;;3.50;92.30;;;;;;5069358;28;20024;-44
2021/12/12 02:01:48;;;;;;;;;;;3.60;92.30;;;;;;5070142;28;20054;-44
2021/12/12 02:04:22;;;;;;;70.53;36.75;;;3.60;92.30;;;;;;5069895;28;19918;-44
2021/12/12 02:06:51;;;;;;;61.65;34.70;;;3.60;92.20;;;;;;5054128;28;20067;-46
2021/12/12 02:09:21;;;;;;;72.65;38.53;;;3.60;92.30;;;;;;5069218;28;20107;-46
2021/12/12 02:11:52;;;;;;;73.03;36.45;;;3.60;92.30;;;;;;5069978;28;20374;-48
2021/12/12 02:14:21;;;;;;;74.72;38.75;;;3.60;92.30;;;;;;5073447;28;20020;-47
2021/12/12 02:16:56;;;;;;;71.53;37.88;;;3.60;92.30;;;;;;5089911;28;20614;-45
2021/12/12 02:19:41;;;;;;;82.75;36.70;;;3.60;92.30;;;;;;5070859;28;20107;-46
2021/12/12 02:36:09;;;;;;;76.47;40.63;;;3.70;92.10;;;;;;5068801;28;20036;-44
2021/12/12 02:38:36;;;;;;;79.43;39.35;;;3.70;92.10;;;;;;5068039;28;20078;-44
2021/12/12 02:41:07;;;;;;;72.18;38.90;;;3.70;92.20;;;;;;5068876;28;20040;-45
2021/12/12 02:43:41;;;;;;;77.00;39.58;;;3.70;92.20;;;;;;5069063;28;20035;-47
2021/12/12 02:46:09;;;;;;;82.80;42.50;;;3.70;92.20;;;;;;5066382;28;20357;-43
2021/12/12 02:48:44;;;;;;;81.13;42.33;;;3.70;92.10;;;;;;5068983;28;20396;-44
2021/12/12 02:51:13;;;;;;;80.18;42.25;;;3.70;92.10;;;;;;5067364;28;20020;-46
2021/12/12 02:53:47;;;;;;;83.97;41.08;;;3.80;92.20;;;;;;5068867;28;20017;-45
2021/12/12 02:56:22;;;;;;;79.10;43.10;;;3.80;92.10;;;;;;5059790;28;20453;-52
2021/12/12 02:58:50;;;;;;;84.25;40.33;;;3.80;92.00;;;;;;5068851;28;20492;-48
2021/12/12 03:01:27;;;;;;;78.65;41.05;;;3.90;92.00;;;;;;5049043;28;20096;-56
2021/12/12 03:03:54;;;;;;;80.75;41.47;;;3.90;92.00;;;;;;5049975;28;20024;-58
2021/12/12 03:06:28;;;;;;;85.68;42.78;;;3.90;92.00;;;;;;5069616;28;20029;-59
2021/12/12 03:09:04;;;;;;;82.03;40.30;;;3.90;92.00;;;;;;5068245;28;20105;-59
2021/12/12 03:11:31;;;;;;;78.03;42.47;;;3.90;92.00;;;;;;5069400;28;20025;-60
2021/12/12 03:13:59;;;;;;;82.03;43.78;;;3.90;92.00;;;;;;5072091;28;20052;-60
2021/12/12 03:16:26;;;;;;;83.72;42.67;;;3.90;92.00;;;;;;5080123;28;20129;-60
2021/12/12 03:18:55;;;;;;;72.80;40.95;;;3.90;92.00;;;;;;5069244;28;20036;-61
2021/12/12 03:21:31;;;;;;;77.83;41.83;;;3.90;92.00;;;;;;5072681;28;20036;-57
2021/12/12 03:24:12;;;;;;;75.40;41.97;;;3.90;92.00;;;;;;5072492;28;20033;-61
2021/12/12 03:26:43;;;;;;;77.78;41.03;;;3.90;92.10;;;;;;5054911;28;20061;-62
2021/12/12 03:29:09;;;;;;;83.97;42.30;;;3.90;92.10;;;;;;5071107;28;20021;-62
2021/12/12 03:31:43;;;;;;;78.55;40.22;;;3.90;92.10;;;;;;5072136;28;20044;-62
2021/12/12 03:34:15;;;;;;;78.90;40.95;;;3.90;92.20;;;;;;5072207;28;20024;-61
2021/12/12 03:36:43;;;;;;;78.50;43.20;;;3.90;92.20;;;;;;5066694;28;20477;-61
2021/12/12 03:39:15;;;;;;;83.30;40.50;;;3.90;92.30;;;;;;5071461;28;20044;-61
2021/12/12 03:41:42;;;;;;;76.68;41.45;;;3.90;92.20;;;;;;5072486;28;20032;-61
2021/12/12 03:44:13;;;;;;;74.15;40.83;;;3.90;92.30;;;;;;5072566;28;20051;-60
2021/12/12 03:46:42;;;;;;;74.22;40.03;;;3.90;92.30;;;;;;5070202;28;20458;-60
2021/12/12 03:49:10;;;;;;;80.33;39.13;;;4.00;92.40;;;;;;5072171;28;20560;-61
2021/12/12 03:51:39;;;;;;;73.25;40.13;;;4.00;92.30;;;;;;5072173;28;20263;-61
2021/12/12 03:54:06;;;;;;;73.90;40.20;;;4.00;92.40;;;;;;5072139;28;20021;-61
2021/12/12 03:56:33;;;;;;;74.57;40.17;;;4.00;92.40;;;;;;5071674;28;20028;-61
2021/12/12 03:59:00;;;;;;;70.43;39.33;;;4.00;92.40;;;;;;5071756;28;20107;-59
2021/12/12 04:01:34;;;;;;;64.03;39.28;;;4.00;92.40;;;;;;5072222;28;20022;-62
2021/12/12 04:04:17;;;;;;;77.90;39.53;;;4.00;92.50;;;;;;5047931;28;20040;-61
2021/12/12 04:06:45;;;;;;;66.82;38.92;;;4.00;92.40;;;;;;5072083;28;20059;-61
2021/12/12 04:09:14;;;;;;;73.03;38.83;;;4.00;92.40;;;;;;5042451;28;20020;-61
2021/12/12 04:11:47;;;;;;;69.40;40.17;;;4.00;92.40;;;;;;5072291;28;20108;-61
2021/12/12 04:14:15;;;;;;;68.95;37.97;;;4.10;92.50;;;;;;5072467;28;20326;-61
2021/12/12 04:16:44;;;;;;;67.80;39.33;;;4.10;92.40;;;;;;5057542;28;20036;-61
2021/12/12 04:19:12;;;;;;;61.70;36.63;;;4.10;92.50;;;;;;5071576;28;20404;-61
2021/12/12 04:21:40;;;;;;;63.92;38.13;;;4.10;92.50;;;;;;5055222;28;20025;-60
2021/12/12 04:24:08;;;;;;;65.05;38.13;;;4.10;92.50;;;;;;5059580;28;20112;-60
2021/12/12 04:26:39;;;;;;;66.88;38.03;;;4.10;92.50;;;;;;5071180;28;20028;-60
2021/12/12 04:29:17;;;;;;;60.78;35.38;;;4.10;92.50;;;;;;5071088;28;20048;-61
2021/12/12 04:31:49;;;;;;;60.90;35.83;;;4.20;92.60;;;;;;5070216;28;20209;-61
2021/12/12 04:34:29;;;;;;;60.97;36.90;;;4.20;92.60;;;;;;5067713;28;20024;-61
2021/12/12 04:37:00;;;;;;;60.35;34.63;;;4.20;92.50;;;;;;5070717;28;20027;-61
2021/12/12 04:39:31;;;;;;;62.33;34.28;;;4.20;92.60;;;;;;5070449;28;20028;-61
2021/12/12 04:42:03;;;;;;;60.42;34.05;;;4.30;92.60;;;;;;5071328;28;20016;-58
2021/12/12 04:44:34;;;;;;;62.50;34.70;;;4.30;92.60;;;;;;5071355;28;20035;-59
2021/12/12 04:50:47;;;;;;;65.30;35.88;;;4.30;92.60;;;;;;5054213;28;20607;-60
2021/12/12 04:53:48;;;;;;;60.05;34.17;;;4.30;92.60;;;;;;5057718;28;20159;-61
2021/12/12 04:56:35;;;;;;;61.47;33.22;;;4.30;92.60;;;;;;5068180;28;20036;-59
2021/12/12 04:59:28;;;;;;;57.20;31.02;;;4.40;92.70;;;;;;5059823;28;20120;-61
2021/12/12 05:02:12;;;;;;;53.55;32.63;;;4.30;92.60;;;;;;5050821;28;20021;-61
2021/12/12 05:04:59;;;;;;;50.25;31.92;;;4.40;92.60;;;;;;5055645;28;20028;-61
2021/12/12 05:08:06;;;;;;;48.65;29.30;;;4.40;92.70;;;;;;5060477;28;20090;-60
2021/12/12 05:10:57;;;;;;;54.75;32.05;;;4.40;92.60;;;;;;5070733;28;20055;-60
2021/12/12 05:13:34;;;;;;;52.40;29.75;;;4.40;92.70;;;;;;5070625;28;20024;-58
2021/12/12 05:16:10;;;;;;;44.55;28.85;;;4.40;92.70;;;;;;5069298;28;20112;-57
2021/12/12 05:18:51;;;;;;;47.97;29.42;;;4.40;92.70;;;;;;5062488;28;20028;-56
2021/12/12 05:21:31;;;;;;;49.95;28.73;;;4.40;92.70;;;;;;5069964;28;20138;-54
2021/12/12 05:24:00;;;;;;;42.35;27.02;;;4.50;92.80;;;;;;5070121;28;20052;-56
2021/12/12 05:26:32;;;;;;;46.95;27.67;;;4.50;92.70;;;;;;5069730;28;20357;-58
2021/12/12 05:29:22;;;;;;;41.00;26.55;;;4.50;92.80;;;;;;5067239;28;20028;-56
2021/12/12 05:31:55;;;;;;;47.05;29.73;;;4.50;92.80;;;;;;5068901;28;20102;-58
2021/12/12 05:34:27;;;;;;;49.38;29.02;;;4.40;92.80;;;;;;5067858;28;20021;-56
2021/12/12 05:36:56;;;;;;;42.85;30.23;;;4.40;92.80;;;;;;5069967;28;20051;-55
2021/12/12 05:39:27;;;;;;;45.78;29.00;;;4.50;92.80;;;;;;5051191;28;20024;-58
2021/12/12 05:41:55;;;;;;;46.15;28.08;;;4.50;92.80;;;;;;5052568;28;20033;-61
2021/12/12 05:44:24;;;;;;;46.22;29.63;;;4.50;92.80;;;;;;5067634;28;20023;-59
2021/12/12 05:46:59;;;;;;;41.60;27.83;;;4.50;92.90;;;;;;5069124;28;20029;-59
2021/12/12 05:49:26;;;;;;;43.00;27.48;;;4.50;92.90;;;;;;5067653;28;20078;-60
2021/12/12 05:51:53;;;;;;;41.45;27.48;;;4.50;92.90;;;;;;5069772;28;20037;-61
2021/12/12 05:54:23;;;;;;;43.72;28.85;;;4.50;92.90;;;;;;5067584;28;20028;-60
2021/12/12 05:56:53;;;;;;;43.92;29.65;;;4.50;92.90;;;;;;5069900;28;20025;-59
2021/12/12 05:59:20;;;;;;;;;;;4.50;93.00;;;;;;5051601;28;20036;-59
2021/12/12 06:01:49;;;;;;;40.20;25.23;;;4.60;93.00;;;;;;5069904;28;19904;-59
2021/12/12 06:04:18;;;;;;;45.70;27.10;;;4.60;93.00;;;;;;5052477;28;20020;-59
2021/12/12 06:06:45;;;;;;;44.77;28.63;;;4.50;93.00;;;;;;5069498;28;20031;-60
2021/12/12 06:09:13;;;;;;;37.78;26.40;;;4.50;93.00;;;;;;5069569;28;20470;-60
2021/12/12 06:11:49;;;;;;;38.30;27.02;;;4.50;93.00;;;;;;5069809;28;20081;-60
2021/12/12 06:14:19;;;;;;;40.13;28.25;;;4.50;93.00;;;;;;5072696;28;20073;-61
2021/12/12 06:16:48;;;;;;;39.58;28.05;;;4.50;93.00;;;;;;5068067;28;20028;-62
2021/12/12 06:19:21;;;;;;;35.33;28.58;;;4.50;93.00;;;;;;5069571;28;20051;-61
2021/12/12 06:21:54;;;;;;;42.20;28.30;;;4.50;93.10;;;;;;5069398;28;20029;-61
2021/12/12 06:24:21;;;;;;;34.67;26.77;;;4.60;93.10;;;;;;5068795;28;20028;-61
2021/12/12 06:26:48;;;;;;;35.83;26.08;;;4.60;93.10;;;;;;5069541;28;20070;-61
2021/12/12 06:29:16;;;;;;;33.78;26.88;;;4.50;93.10;;;;;;5069283;28;20032;-61
2021/12/12 06:31:46;;;;;;;36.67;27.48;;;4.60;93.20;;;;;;5069219;28;20094;-61
2021/12/12 06:34:14;;;;;;;32.70;26.83;;;4.60;93.20;;;;;;5052695;28;20035;-59
2021/12/12 06:36:42;;;;;;;34.72;25.77;;;4.60;93.20;;;;;;5069131;28;20190;-60
2021/12/12 06:39:10;;;;;;;33.03;24.15;;;4.70;93.20;;;;;;5069222;28;20025;-60
2021/12/12 06:41:37;;;;;;;33.05;24.50;;;4.60;93.20;;;;;;5069034;28;20175;-55
2021/12/12 06:44:10;;;;;;;30.05;23.45;;;4.60;93.20;;;;;;5068603;28;20016;-58
2021/12/12 06:46:39;;;;;;;34.50;24.85;;;4.60;93.20;;;;;;5069190;28;20027;-60
2021/12/12 06:49:08;;;;;;;32.95;25.17;;;4.60;93.20;;;;;;5069056;28;20032;-60
2021/12/12 06:51:38;;;;;;;31.98;27.23;;;4.70;93.20;;;;;;5069430;28;20469;-60
2021/12/12 06:54:05;;;;;;;35.72;23.70;;;4.70;93.20;;;;;;5069254;28;20040;-60
2021/12/12 06:56:36;;;;;;;30.60;22.52;;;4.60;93.10;;;;;;5075755;28;20500;-60
2021/12/12 06:59:07;;;;;;;31.27;23.30;;;4.70;93.20;;;;;;5069559;28;20458;-61
2021/12/12 07:01:37;;;;;;;31.52;23.65;;;4.70;93.30;;;;;;5075539;28;20032;-61
2021/12/12 07:04:07;;;;;;;33.63;23.80;;;4.70;93.20;;;;;;5069870;28;20032;-61
2021/12/12 07:06:36;;;;;;;29.20;22.42;;;4.70;93.30;;;;;;5075755;28;20032;-60
2021/12/12 07:09:06;;;;;;;29.33;22.52;;;4.70;93.20;;;;;;5062151;28;20644;-60
2021/12/12 07:11:36;;;;;;;25.90;21.10;;;4.70;93.30;;;;;;5058850;28;20029;-60
2021/12/12 07:14:05;;;;;;;27.33;21.50;;;4.70;93.30;;;;;;5042773;28;20033;-58
2021/12/12 07:16:32;;;;;;;25.92;20.48;;;4.70;93.20;;;;;;5076117;28;22042;-58
2021/12/12 07:19:00;;;;;;;23.27;18.60;;;4.70;93.20;;;;;;5058775;28;20139;-60
2021/12/12 07:21:29;;;;;;;24.63;19.17;;;4.70;93.30;;;;;;5073063;28;20025;-59
2021/12/12 07:23:56;;;;;;;29.15;21.80;;;4.80;93.30;;;;;;5075214;28;20034;-60
2021/12/12 07:26:24;;;;;;;25.05;21.23;;;4.80;93.30;;;;;;5075600;28;20446;-60
2021/12/12 07:28:53;;;;;;;24.13;18.45;;;4.80;93.30;;;;;;5060662;28;20522;-57
2021/12/12 07:31:25;;;;;;;22.75;18.60;;;4.80;93.20;;;;;;5058888;28;20041;-57
2021/12/12 07:33:56;;;;;;;22.27;19.23;;;4.80;93.20;;;;;;5032427;28;20451;-56
2021/12/12 07:36:24;;;;;;;24.80;19.88;;;4.80;93.30;;;;;;5035048;28;20032;-51
2021/12/12 07:38:57;;;;;;;21.17;17.42;;;4.80;93.30;;;;;;5033667;28;20338;-52
2021/12/12 07:41:27;;;;;;;21.75;17.98;;;4.80;93.30;;;;;;5033214;28;20021;-51
2021/12/12 07:43:54;;;;;;;22.67;18.38;;;4.90;93.30;;;;;;5033619;28;20164;-52
2021/12/12 07:46:21;;;;;;;20.02;16.70;;;4.90;93.30;;;;;;5034835;28;20030;-51
2021/12/12 07:48:49;;;;;;;20.58;18.38;;;4.90;93.20;;;;;;5034842;28;20034;-51
2021/12/12 07:51:19;;;;;;;21.40;17.27;;;4.90;93.30;;;;;;5031673;28;20032;-52
2021/12/12 07:53:52;;;;;;;21.63;17.85;;;4.90;93.20;;;;;;5035155;28;20026;-50
2021/12/12 07:56:21;;;;;;;23.42;17.52;;;4.90;93.30;;;;;;5034766;28;20049;-50
2021/12/12 07:58:48;;;;;;;19.80;15.83;;;4.90;93.30;;;;;;5033019;28;20026;-52
2021/12/12 08:01:16;;;;;;;21.02;15.65;;;4.90;93.30;;;;;;5032810;28;20322;-48
2021/12/12 08:03:43;;;;;;;18.42;16.20;;;4.90;93.30;;;;;;5035122;28;20033;-53
2021/12/12 08:06:14;;;;;;;17.83;14.65;;;5.00;93.30;;;;;;5032960;28;20013;-50
2021/12/12 08:08:42;;;;;;;15.45;13.65;;;5.00;93.30;;;;;;5031304;28;20029;-51
2021/12/12 08:11:09;;;;;;;16.10;13.40;;;5.00;93.30;;;;;;5031030;28;20072;-50
2021/12/12 08:13:36;;;;;;;17.38;14.48;;;5.10;93.30;;;;;;5031553;28;20025;-50
2021/12/12 08:16:05;;;;;;;17.02;14.88;;;5.10;93.30;;;;;;5031385;28;20495;-48
2021/12/12 08:18:33;;;;;;;18.27;14.38;;;5.10;93.30;;;;;;5030058;28;20037;-52
2021/12/12 08:21:02;;;;;;;18.95;14.02;;;5.10;93.30;;;;;;5030110;28;20022;-49
2021/12/12 08:23:29;;;;;;;18.63;14.50;;;5.10;93.30;;;;;;5029716;28;20366;-50
2021/12/12 08:25:57;;;;;;;19.48;14.02;;;5.10;93.30;;;;;;5030132;28;20052;-49
2021/12/12 08:28:24;;;;;;;15.35;13.50;;;5.10;93.30;;;;;;5013757;28;20036;-48
2021/12/12 08:30:52;;;;;;;16.10;14.20;;;5.10;93.30;;;;;;5046516;28;20400;-49
2021/12/12 08:33:19;;;;;;;15.60;13.65;;;5.20;93.30;;;;;;5057641;28;20369;-50
2021/12/12 08:35:46;;;;;;;16.58;14.13;;;5.20;93.30;;;;;;5071163;28;20036;-51
2021/12/12 08:38:14;;;;;;;16.83;13.48;;;5.20;93.30;;;;;;5067761;28;20369;-51
2021/12/12 08:40:46;;;;;;;14.57;12.68;;;5.20;93.30;;;;;;5051909;28;20074;-49
2021/12/12 08:43:15;;;;;;;15.65;13.50;;;5.30;93.30;;;;;;5063295;28;20621;-50
2021/12/12 08:45:46;;;;;;;15.40;12.70;;;5.30;93.40;;;;;;5065373;28;20078;-54
2021/12/12 08:48:16;;;;;;;14.98;13.18;;;5.30;93.40;;;;;;5070449;28;20051;-51
2021/12/12 08:50:42;;;;;;;;;;;5.30;93.40;;;;;;5071320;28;20032;-50
2021/12/12 08:53:10;;;;;;;13.70;11.82;;;5.40;93.40;;;;;;5070751;28;20229;-49
2021/12/12 08:55:38;;;;;;;15.40;12.40;;;5.40;93.40;;;;;;5070132;28;20081;-50
2021/12/12 08:58:15;;;;;;;14.55;12.65;;;5.40;93.40;;;;;;5071003;28;20050;-50
2021/12/12 09:01:01;;;;;;;12.43;10.93;;;5.40;93.50;;;;;;5071460;28;20021;-47
2021/12/12 09:03:34;;;;;;;15.93;11.90;;;5.40;93.40;;;;;;5070539;28;20033;-50
2021/12/12 09:06:01;;;;;;;13.23;10.85;;;5.50;93.50;;;;;;5071203;28;20024;-49
2021/12/12 09:08:33;;;;;;;12.68;10.40;;;5.60;93.50;;;;;;5070876;28;20032;-49
2021/12/12 09:11:30;;;;;;;11.90;9.18;;;5.60;93.60;;;;;;5070213;28;20054;-51
2021/12/12 09:14:28;;;;;;;12.27;9.10;;;5.70;93.60;;;;;;5070492;28;20028;-50
2021/12/12 09:17:09;;;;;;;11.23;9.35;;;5.80;93.60;;;;;;5069505;28;20040;-49
2021/12/12 09:19:42;;;;;;;10.25;8.73;;;5.80;93.60;;;;;;5069729;28;20056;-52
2021/12/12 09:22:27;;;;;;;13.77;8.85;;;5.90;93.70;;;;;;5067915;28;20021;-49
2021/12/12 09:25:04;;;;;;;12.25;8.73;;;5.90;93.60;;;;;;5067955;28;20061;-51
2021/12/12 09:27:41;;;;;;;11.68;9.40;;;5.90;93.70;;;;;;5058603;28;20028;-48
2021/12/12 09:30:11;;;;;;;11.77;8.48;;;6.00;93.70;;;;;;5067882;28;20052;-47
2021/12/12 09:32:47;;;;;;;11.90;8.85;;;6.10;93.70;;;;;;5069636;28;20544;-51
2021/12/12 09:35:29;;;;;;;12.60;9.32;;;6.10;93.60;;;;;;5062752;28;20044;-49
2021/12/12 09:38:24;;;;;;;12.07;8.65;;;6.10;93.60;;;;;;5063723;28;20381;-52
2021/12/12 09:41:17;;;;;;;12.55;9.65;;;6.20;93.60;;;;;;5064100;28;20017;-48
2021/12/12 09:44:01;;;;;;;11.48;9.52;;;6.20;93.60;;;;;;5069877;28;20033;-50
2021/12/12 09:46:58;;;;;;;13.18;9.77;;;6.20;93.50;;;;;;5068581;28;20466;-46
2021/12/12 09:53:01;;;;;;;11.93;10.10;;;6.30;93.60;;;;;;5070532;28;20082;-48
2021/12/12 09:55:36;;;;;;;11.80;9.60;;;6.20;93.50;;;;;;5068819;28;20453;-47
2021/12/12 09:58:11;;;;;;;12.55;10.10;;;6.30;93.50;;;;;;5038000;28;20124;-47
2021/12/12 10:00:46;;;;;;;11.68;9.07;;;6.30;93.50;;;;;;5068151;28;20032;-47
2021/12/12 10:03:31;;;;;;;12.23;10.35;;;6.30;93.60;;;;;;5051725;28;20450;-50
2021/12/12 10:06:16;;;;;;;13.18;9.73;;;6.40;93.60;;;;;;5052506;28;20113;-49
2021/12/12 10:09:05;;;;;;;13.52;10.18;;;6.40;93.60;;;;;;5069550;28;20056;-47
2021/12/12 10:12:16;;;;;;;14.85;10.15;;;6.40;93.60;;;;;;5069606;28;20059;-48
2021/12/12 10:14:57;;;;;;;13.38;9.82;;;6.40;93.50;;;;;;5033487;28;20052;-46
2021/12/12 10:17:34;;;;;;;12.00;9.38;;;6.50;93.60;;;;;;5068905;28;20056;-53
2021/12/12 10:20:08;;;;;;;14.27;10.57;;;6.60;93.60;;;;;;5069628;28;20020;-47
2021/12/12 10:22:53;;;;;;;17.00;10.50;;;6.60;93.60;;;;;;5069032;28;20016;-48
2021/12/12 10:25:45;;;;;;;13.73;10.45;;;6.60;93.60;;;;;;5069100;28;20024;-48
2021/12/12 10:28:26;;;;;;;15.30;10.80;;;6.60;93.60;;;;;;5069106;28;20104;-53
2021/12/12 10:31:04;;;;;;;14.40;10.65;;;6.60;93.60;;;;;;5068315;28;20377;-49
2021/12/12 10:33:47;;;;;;;12.38;9.73;;;6.60;93.60;;;;;;5069007;28;20039;-48
2021/12/12 10:36:17;;;;;;;13.90;10.73;;;6.70;93.60;;;;;;5069074;28;20029;-48
2021/12/12 10:38:55;;;;;;;14.15;10.20;;;6.70;93.60;;;;;;5068621;28;20032;-47
2021/12/12 10:41:40;;;;;;;13.55;10.07;;;6.80;93.70;;;;;;5069358;28;20017;-51
2021/12/12 10:44:14;;;;;;;14.38;10.63;;;6.70;93.60;;;;;;5051445;28;20342;-47
2021/12/12 10:47:08;;;;;;;12.80;10.65;;;6.70;93.60;;;;;;5067399;28;20040;-45
2021/12/12 10:50:13;;;;;;;14.80;10.77;;;6.70;93.60;;;;;;5067389;28;20040;-48
2021/12/12 10:53:01;;;;;;;14.77;10.68;;;6.80;93.60;;;;;;5059605;28;20079;-48
2021/12/12 10:55:40;;;;;;;14.30;11.40;;;6.70;93.60;;;;;;5068449;28;20036;-47
2021/12/12 10:58:25;;;;;;;15.48;11.85;;;6.80;93.70;;;;;;5068390;28;20027;-50
2021/12/12 11:00:59;;;;;;;16.35;11.80;;;6.80;93.60;;;;;;5066390;28;20025;-52
2021/12/12 11:03:51;;;;;;;18.15;12.45;;;6.80;93.70;;;;;;5067932;28;20029;-50
2021/12/12 11:06:40;;;;;;;18.10;12.02;;;6.90;93.70;;;;;;5040476;28;20075;-48
2021/12/12 11:09:26;;;;;;;15.77;11.23;;;6.90;93.70;;;;;;5068610;28;20041;-47
2021/12/12 11:12:18;;;;;;;14.00;11.43;;;6.90;93.70;;;;;;5064139;28;20459;-48
2021/12/12 11:15:02;;;;;;;15.45;11.52;;;6.90;93.70;;;;;;5068298;28;20468;-47
2021/12/12 11:18:03;;;;;;;15.23;11.00;;;6.90;93.70;;;;;;5067833;28;20032;-51
2021/12/12 11:20:45;;;;;;;14.27;10.75;;;7.00;93.70;;;;;;5058088;28;20021;-47
2021/12/12 11:23:34;;;;;;;15.68;11.98;;;7.00;93.80;;;;;;5068599;28;20029;-48
2021/12/12 11:26:15;;;;;;;17.00;11.30;;;7.00;93.70;;;;;;5063884;28;20462;-48
2021/12/12 11:28:49;;;;;;;14.18;9.70;;;7.00;93.70;;;;;;5061506;28;20055;-48
2021/12/12 11:31:42;;;;;;;14.23;11.18;;;7.10;93.80;;;;;;5071810;28;20048;-46
2021/12/12 11:34:09;;;;;;;17.38;10.85;;;7.30;94.00;;;;;;5067490;28;20032;-50
2021/12/12 11:37:05;;;;;;;18.38;12.60;;;7.40;94.00;;;;;;5051587;28;20120;-51
2021/12/12 11:40:11;;;;;;;16.42;11.70;;;7.30;93.80;;;;;;5042866;28;20087;-54
2021/12/12 11:43:08;;;;;;;15.57;10.90;;;7.30;93.70;;;;;;5031304;28;20153;-59
2021/12/12 11:45:42;;;;;;;16.15;10.65;;;7.50;94.00;;;;;;5071905;28;20036;-58
2021/12/12 11:48:20;;;;;;;16.42;11.75;;;7.50;93.60;;;;;;5054618;28;20024;-58
2021/12/12 11:50:54;;;;;;;16.73;11.60;;;7.40;93.50;;;;;;5072050;28;20033;-56
2021/12/12 11:53:40;;;;;;;15.35;10.88;;;7.40;93.50;;;;;;5048297;28;20147;-56
2021/12/12 11:56:17;;;;;;;15.55;11.20;;;7.40;93.50;;;;;;5055492;28;20454;-52
2021/12/12 11:59:01;;;;;;;15.75;11.15;;;7.40;93.50;;;;;;5058728;28;20037;-53
2021/12/12 12:01:51;;;;;;;16.80;12.93;;;7.40;93.50;;;;;;5051257;28;20107;-56
2021/12/12 12:04:35;;;;;;;17.00;12.07;;;7.40;93.50;;;;;;5058743;28;20130;-52
2021/12/12 12:07:50;;;;;;;16.35;12.30;;;7.40;93.60;;;;;;5053733;28;20058;-55
2021/12/12 12:10:37;;;;;;;16.52;11.40;;;7.40;93.60;;;;;;4993973;28;20072;-54
2021/12/12 12:13:40;;;;;;;18.02;12.45;;;7.50;93.50;;;;;;5057210;28;20020;-49
2021/12/12 12:16:35;;;;;;;14.63;11.45;;;7.50;93.50;;;;;;5065165;28;20040;-52
2021/12/12 12:19:08;;;;;;;14.88;10.98;;;7.50;93.60;;;;;;5065934;28;20071;-49
2021/12/12 12:21:53;;;;;;;16.30;12.10;;;7.50;93.60;;;;;;5052653;28;20039;-53
2021/12/12 12:24:38;;;;;;;16.58;11.82;;;7.50;93.60;;;;;;5062927;28;20082;-50
2021/12/12 12:27:09;;;;;;;17.15;12.45;;;7.50;93.60;;;;;;5071636;28;20028;-47
2021/12/12 12:29:44;;;;;;;16.17;10.57;;;7.40;93.60;;;;;;5071697;28;20405;-54
2021/12/12 12:32:47;;;;;;;16.08;11.45;;;7.50;93.70;;;;;;5061278;28;20036;-50
2021/12/12 12:35:40;;;;;;;16.90;11.80;;;7.50;93.70;;;;;;5070876;28;20024;-51
2021/12/12 12:38:45;;;;;;;14.52;11.23;;;7.50;93.70;;;;;;5071743;28;20025;-53
2021/12/12 12:41:32;;;;;;;18.27;12.15;;;7.60;93.70;;;;;;5071113;28;20078;-52
2021/12/12 12:44:36;;;;;;;16.85;12.05;;;7.60;93.70;;;;;;5065233;28;20028;-54
2021/12/12 12:47:42;;;;;;;18.13;13.05;;;7.60;93.70;;;;;;5070945;28;20032;-56
2021/12/12 12:50:53;;;;;;;20.92;14.13;;;7.60;93.70;;;;;;4966451;28;20652;-56
2021/12/12 12:53:38;;;;;;;20.40;14.57;;;7.60;93.70;;;;;;4961635;28;20047;-55
2021/12/12 12:56:33;;;;;;;18.27;14.73;;;7.70;93.80;;;;;;4966050;28;20491;-54
2021/12/12 12:59:18;;;;;;;18.48;13.35;;;7.60;93.80;;;;;;4917562;29;20370;-53
2021/12/12 13:02:16;;;;;;;17.08;12.35;;;7.70;93.80;;;;;;4956253;28;20038;-50
2021/12/12 13:04:59;;;;;;;17.33;13.18;;;7.70;93.80;;;;;;4969369;28;20082;-53
2021/12/12 13:07:49;;;;;;;18.98;12.95;;;7.70;93.80;;;;;;4967570;28;20723;-54
2021/12/12 13:10:21;;;;;;;18.45;13.23;;;7.70;93.80;;;;;;4953545;28;20154;-55
2021/12/12 13:13:10;;;;;;;16.63;12.52;;;7.80;93.90;;;;;;4962107;28;20034;-54
2021/12/12 13:15:39;;;;;;;19.17;12.48;;;7.80;93.90;;;;;;4969763;28;20438;-58
2021/12/12 13:18:09;;;;;;;18.92;13.70;;;7.80;93.90;;;;;;4946291;29;20035;-60
2021/12/12 13:21:25;;;;;;;19.60;13.80;;;7.90;93.90;;;;;;4950535;29;20173;-60
2021/12/12 13:24:07;;;;;;;20.20;14.23;;;7.90;93.90;;;;;;5001760;28;20090;-58
2021/12/12 13:26:57;;;;;;;17.50;13.20;;;7.90;93.90;;;;;;5069689;28;20051;-55
2021/12/12 13:29:43;;;;;;;18.90;14.05;;;7.90;93.90;;;;;;5069504;28;20029;-57
2021/12/12 13:32:19;;;;;;;17.45;13.65;;;7.90;93.90;;;;;;5069605;28;20068;-57
2021/12/12 13:34:56;;;;;;;19.60;14.32;;;7.90;93.90;;;;;;5070249;28;20020;-58
2021/12/12 13:37:39;;;;;;;19.45;13.68;;;7.90;94.00;;;;;;5063573;28;20120;-58
2021/12/12 13:40:20;;;;;;;15.93;12.48;;;7.90;93.90;;;;;;5070015;28;20025;-57
2021/12/12 13:43:02;;;;;;;17.60;12.75;;;7.90;93.90;;;;;;5069935;28;20070;-55
2021/12/12 13:45:38;;;;;;;17.45;14.23;;;8.00;93.90;;;;;;5069721;28;20082;-57
2021/12/12 13:48:40;;;;;;;15.25;11.38;;;8.00;93.90;;;;;;5054361;28;20035;-52